sensor_id;sensor_type;location;lat;lon;timestamp;temperature;humidity
54590;DHT22;40485;53.172;5.416;2022-07-29T00:02:25;18.40;83.10
54590;DHT22;40485;53.172;5.416;2022-07-29T00:04:51;18.50;83.50
54590;DHT22;40485;53.172;5.416;2022-07-29T00:07:17;18.50;83.50
54590;DHT22;40485;53.172;5.416;2022-07-29T00:09:42;18.50;83.50
54590;DHT22;40485;53.172;5.416;2022-07-29T00:12:08;18.50;83.60
54590;DHT22;40485;53.172;5.416;2022-07-29T00:14:34;18.50;83.00
54590;DHT22;40485;53.172;5.416;2022-07-29T00:17:00;18.50;83.70
54590;DHT22;40485;53.172;5.416;2022-07-29T00:19:26;18.60;83.40
54590;DHT22;40485;53.172;5.416;2022-07-29T00:21:51;18.60;83.40
54590;DHT22;40485;53.172;5.416;2022-07-29T00:24:17;18.70;83.30
54590;DHT22;40485;53.172;5.416;2022-07-29T00:26:42;18.70;83.30
54590;DHT22;40485;53.172;5.416;2022-07-29T00:29:08;18.60;83.30
54590;DHT22;40485;53.172;5.416;2022-07-29T00:31:34;18.60;83.20
54590;DHT22;40485;53.172;5.416;2022-07-29T00:33:59;18.60;83.20
54590;DHT22;40485;53.172;5.416;2022-07-29T00:36:25;18.60;83.40
54590;DHT22;40485;53.172;5.416;2022-07-29T00:38:51;18.60;83.50
54590;DHT22;40485;53.172;5.416;2022-07-29T00:41:17;18.70;83.30
54590;DHT22;40485;53.172;5.416;2022-07-29T00:43:44;18.70;83.40
54590;DHT22;40485;53.172;5.416;2022-07-29T00:46:10;18.70;83.40
54590;DHT22;40485;53.172;5.416;2022-07-29T00:48:36;18.70;83.40
54590;DHT22;40485;53.172;5.416;2022-07-29T00:51:03;18.70;83.00
54590;DHT22;40485;53.172;5.416;2022-07-29T00:53:30;18.70;83.30
54590;DHT22;40485;53.172;5.416;2022-07-29T00:55:56;18.70;83.50
54590;DHT22;40485;53.172;5.416;2022-07-29T00:58:22;18.70;83.30
54590;DHT22;40485;53.172;5.416;2022-07-29T01:00:48;18.70;83.50
54590;DHT22;40485;53.172;5.416;2022-07-29T01:03:14;18.70;83.60
54590;DHT22;40485;53.172;5.416;2022-07-29T01:05:41;18.70;83.50
54590;DHT22;40485;53.172;5.416;2022-07-29T01:08:08;18.70;84.50
54590;DHT22;40485;53.172;5.416;2022-07-29T01:10:37;18.70;84.30
54590;DHT22;40485;53.172;5.416;2022-07-29T01:13:03;18.70;84.30
54590;DHT22;40485;53.172;5.416;2022-07-29T01:15:30;18.80;84.30
54590;DHT22;40485;53.172;5.416;2022-07-29T01:18:03;18.80;84.00
54590;DHT22;40485;53.172;5.416;2022-07-29T01:23:59;18.70;84.50
54590;DHT22;40485;53.172;5.416;2022-07-29T01:32:08;18.80;84.80
54590;DHT22;40485;53.172;5.416;2022-07-29T01:34:50;18.90;85.00
54590;DHT22;40485;53.172;5.416;2022-07-29T01:37:29;18.90;84.80
54590;DHT22;40485;53.172;5.416;2022-07-29T01:39:59;18.90;84.50
54590;DHT22;40485;53.172;5.416;2022-07-29T01:42:43;19.00;84.70
54590;DHT22;40485;53.172;5.416;2022-07-29T01:47:54;18.90;84.90
54590;DHT22;40485;53.172;5.416;2022-07-29T01:50:26;19.00;85.10
54590;DHT22;40485;53.172;5.416;2022-07-29T01:52:56;19.10;84.40
54590;DHT22;40485;53.172;5.416;2022-07-29T01:55:27;19.10;85.00
54590;DHT22;40485;53.172;5.416;2022-07-29T01:57:56;19.00;85.30
54590;DHT22;40485;53.172;5.416;2022-07-29T02:00:23;18.90;85.10
54590;DHT22;40485;53.172;5.416;2022-07-29T02:02:50;18.90;85.40
54590;DHT22;40485;53.172;5.416;2022-07-29T02:05:18;19.00;85.40
54590;DHT22;40485;53.172;5.416;2022-07-29T02:07:47;19.00;85.40
54590;DHT22;40485;53.172;5.416;2022-07-29T02:10:14;19.00;85.70
54590;DHT22;40485;53.172;5.416;2022-07-29T02:12:42;18.90;85.70
54590;DHT22;40485;53.172;5.416;2022-07-29T02:15:09;19.00;85.60
54590;DHT22;40485;53.172;5.416;2022-07-29T02:17:43;18.90;85.90
54590;DHT22;40485;53.172;5.416;2022-07-29T02:20:09;18.90;85.70
54590;DHT22;40485;53.172;5.416;2022-07-29T02:22:37;18.90;85.60
54590;DHT22;40485;53.172;5.416;2022-07-29T02:25:05;18.90;85.80
54590;DHT22;40485;53.172;5.416;2022-07-29T02:27:33;18.90;86.00
54590;DHT22;40485;53.172;5.416;2022-07-29T02:30:01;18.90;86.40
54590;DHT22;40485;53.172;5.416;2022-07-29T02:32:27;18.90;86.00
54590;DHT22;40485;53.172;5.416;2022-07-29T02:34:54;19.00;86.10
54590;DHT22;40485;53.172;5.416;2022-07-29T02:37:21;19.00;85.70
54590;DHT22;40485;53.172;5.416;2022-07-29T02:39:48;18.90;85.80
54590;DHT22;40485;53.172;5.416;2022-07-29T02:42:16;18.90;86.40
54590;DHT22;40485;53.172;5.416;2022-07-29T02:44:42;18.80;86.20
54590;DHT22;40485;53.172;5.416;2022-07-29T02:47:21;18.70;87.10
54590;DHT22;40485;53.172;5.416;2022-07-29T02:49:57;18.70;87.40
54590;DHT22;40485;53.172;5.416;2022-07-29T02:52:37;18.70;87.80
54590;DHT22;40485;53.172;5.416;2022-07-29T02:57:46;18.70;87.50
54590;DHT22;40485;53.172;5.416;2022-07-29T03:00:14;18.80;87.60
54590;DHT22;40485;53.172;5.416;2022-07-29T03:02:43;18.80;87.00
54590;DHT22;40485;53.172;5.416;2022-07-29T03:05:14;18.70;87.10
54590;DHT22;40485;53.172;5.416;2022-07-29T03:07:43;18.50;87.30
54590;DHT22;40485;53.172;5.416;2022-07-29T03:10:11;18.40;87.50
54590;DHT22;40485;53.172;5.416;2022-07-29T03:12:38;18.40;88.20
54590;DHT22;40485;53.172;5.416;2022-07-29T03:15:04;18.30;88.00
54590;DHT22;40485;53.172;5.416;2022-07-29T03:17:30;18.30;88.50
54590;DHT22;40485;53.172;5.416;2022-07-29T03:19:57;18.20;88.80
54590;DHT22;40485;53.172;5.416;2022-07-29T03:22:24;18.20;89.70
54590;DHT22;40485;53.172;5.416;2022-07-29T03:24:50;18.30;88.90
54590;DHT22;40485;53.172;5.416;2022-07-29T03:27:16;18.20;88.90
54590;DHT22;40485;53.172;5.416;2022-07-29T03:29:41;18.20;89.20
54590;DHT22;40485;53.172;5.416;2022-07-29T03:32:07;18.20;89.30
54590;DHT22;40485;53.172;5.416;2022-07-29T03:34:32;18.30;89.50
54590;DHT22;40485;53.172;5.416;2022-07-29T03:36:58;18.20;89.10
54590;DHT22;40485;53.172;5.416;2022-07-29T03:39:27;18.30;89.40
54590;DHT22;40485;53.172;5.416;2022-07-29T03:41:55;18.20;89.60
54590;DHT22;40485;53.172;5.416;2022-07-29T03:44:22;18.20;89.60
54590;DHT22;40485;53.172;5.416;2022-07-29T03:46:50;18.20;89.60
54590;DHT22;40485;53.172;5.416;2022-07-29T03:49:18;18.00;89.80
54590;DHT22;40485;53.172;5.416;2022-07-29T03:51:45;18.00;90.20
54590;DHT22;40485;53.172;5.416;2022-07-29T03:54:10;18.10;90.20
54590;DHT22;40485;53.172;5.416;2022-07-29T03:56:39;18.10;90.20
54590;DHT22;40485;53.172;5.416;2022-07-29T03:59:06;18.00;90.20
54590;DHT22;40485;53.172;5.416;2022-07-29T04:01:34;18.00;90.30
54590;DHT22;40485;53.172;5.416;2022-07-29T04:04:01;18.00;90.20
54590;DHT22;40485;53.172;5.416;2022-07-29T04:06:27;18.00;90.30
54590;DHT22;40485;53.172;5.416;2022-07-29T04:08:52;18.20;90.30
54590;DHT22;40485;53.172;5.416;2022-07-29T04:11:18;18.30;90.30
54590;DHT22;40485;53.172;5.416;2022-07-29T04:13:44;18.30;90.20
54590;DHT22;40485;53.172;5.416;2022-07-29T04:16:10;18.10;90.20
54590;DHT22;40485;53.172;5.416;2022-07-29T04:18:35;18.30;90.20
54590;DHT22;40485;53.172;5.416;2022-07-29T04:21:01;18.20;90.10
54590;DHT22;40485;53.172;5.416;2022-07-29T04:23:29;18.10;90.10
54590;DHT22;40485;53.172;5.416;2022-07-29T04:25:57;18.00;90.40
54590;DHT22;40485;53.172;5.416;2022-07-29T04:28:23;18.10;90.50
54590;DHT22;40485;53.172;5.416;2022-07-29T04:30:48;18.10;90.40
54590;DHT22;40485;53.172;5.416;2022-07-29T04:33:14;18.20;90.40
54590;DHT22;40485;53.172;5.416;2022-07-29T04:35:40;18.30;90.20
54590;DHT22;40485;53.172;5.416;2022-07-29T04:38:06;18.30;90.30
54590;DHT22;40485;53.172;5.416;2022-07-29T04:40:32;18.30;90.30
54590;DHT22;40485;53.172;5.416;2022-07-29T04:43:01;18.30;90.20
54590;DHT22;40485;53.172;5.416;2022-07-29T04:45:28;18.30;90.30
54590;DHT22;40485;53.172;5.416;2022-07-29T04:47:54;18.20;90.30
54590;DHT22;40485;53.172;5.416;2022-07-29T04:50:20;18.00;90.30
54590;DHT22;40485;53.172;5.416;2022-07-29T04:52:46;18.10;90.60
54590;DHT22;40485;53.172;5.416;2022-07-29T04:55:11;18.20;90.70
54590;DHT22;40485;53.172;5.416;2022-07-29T04:57:37;18.30;90.60
54590;DHT22;40485;53.172;5.416;2022-07-29T05:00:04;18.30;90.50
54590;DHT22;40485;53.172;5.416;2022-07-29T05:02:30;18.30;90.40
54590;DHT22;40485;53.172;5.416;2022-07-29T05:04:56;18.30;90.30
54590;DHT22;40485;53.172;5.416;2022-07-29T05:07:21;18.20;90.30
54590;DHT22;40485;53.172;5.416;2022-07-29T05:09:47;18.20;90.40
54590;DHT22;40485;53.172;5.416;2022-07-29T05:12:13;18.20;90.50
54590;DHT22;40485;53.172;5.416;2022-07-29T05:14:38;18.30;90.60
54590;DHT22;40485;53.172;5.416;2022-07-29T05:17:04;18.30;90.40
54590;DHT22;40485;53.172;5.416;2022-07-29T05:19:30;18.40;90.50
54590;DHT22;40485;53.172;5.416;2022-07-29T05:21:55;18.40;90.30
54590;DHT22;40485;53.172;5.416;2022-07-29T05:24:22;18.50;90.30
54590;DHT22;40485;53.172;5.416;2022-07-29T05:26:47;18.60;90.20
54590;DHT22;40485;53.172;5.416;2022-07-29T05:29:13;18.60;90.10
54590;DHT22;40485;53.172;5.416;2022-07-29T05:31:39;18.60;90.10
54590;DHT22;40485;53.172;5.416;2022-07-29T05:34:04;18.70;90.20
54590;DHT22;40485;53.172;5.416;2022-07-29T05:36:30;18.70;90.20
54590;DHT22;40485;53.172;5.416;2022-07-29T05:38:55;18.80;90.20
54590;DHT22;40485;53.172;5.416;2022-07-29T05:41:21;18.80;90.00
54590;DHT22;40485;53.172;5.416;2022-07-29T05:43:46;18.80;90.00
54590;DHT22;40485;53.172;5.416;2022-07-29T05:46:12;18.80;90.10
54590;DHT22;40485;53.172;5.416;2022-07-29T05:48:39;18.80;90.10
54590;DHT22;40485;53.172;5.416;2022-07-29T05:51:05;18.80;90.10
54590;DHT22;40485;53.172;5.416;2022-07-29T05:53:30;18.80;90.20
54590;DHT22;40485;53.172;5.416;2022-07-29T05:55:56;18.90;90.10
54590;DHT22;40485;53.172;5.416;2022-07-29T05:58:21;19.00;90.10
54590;DHT22;40485;53.172;5.416;2022-07-29T06:00:47;19.10;90.10
54590;DHT22;40485;53.172;5.416;2022-07-29T06:03:13;19.10;88.80
54590;DHT22;40485;53.172;5.416;2022-07-29T06:05:39;19.00;89.00
54590;DHT22;40485;53.172;5.416;2022-07-29T06:08:05;19.00;89.00
54590;DHT22;40485;53.172;5.416;2022-07-29T06:10:37;19.00;88.50
54590;DHT22;40485;53.172;5.416;2022-07-29T06:13:03;19.00;88.60
54590;DHT22;40485;53.172;5.416;2022-07-29T06:15:28;19.10;88.60
54590;DHT22;40485;53.172;5.416;2022-07-29T06:17:54;19.20;88.10
54590;DHT22;40485;53.172;5.416;2022-07-29T06:20:19;19.20;87.60
54590;DHT22;40485;53.172;5.416;2022-07-29T06:22:45;19.20;87.60
54590;DHT22;40485;53.172;5.416;2022-07-29T06:25:10;19.00;87.50
54590;DHT22;40485;53.172;5.416;2022-07-29T06:27:37;19.10;88.00
54590;DHT22;40485;53.172;5.416;2022-07-29T06:30:03;19.20;88.20
54590;DHT22;40485;53.172;5.416;2022-07-29T06:32:32;19.40;87.90
54590;DHT22;40485;53.172;5.416;2022-07-29T06:34:57;19.40;87.40
54590;DHT22;40485;53.172;5.416;2022-07-29T06:37:23;19.40;86.60
54590;DHT22;40485;53.172;5.416;2022-07-29T06:39:48;19.40;86.20
54590;DHT22;40485;53.172;5.416;2022-07-29T06:42:34;19.40;86.50
54590;DHT22;40485;53.172;5.416;2022-07-29T06:45:00;19.50;85.90
54590;DHT22;40485;53.172;5.416;2022-07-29T06:47:25;19.50;85.50
54590;DHT22;40485;53.172;5.416;2022-07-29T06:49:51;19.50;85.10
54590;DHT22;40485;53.172;5.416;2022-07-29T06:52:16;19.60;85.60
54590;DHT22;40485;53.172;5.416;2022-07-29T06:54:42;19.70;85.10
54590;DHT22;40485;53.172;5.416;2022-07-29T06:57:13;19.80;84.30
54590;DHT22;40485;53.172;5.416;2022-07-29T06:59:39;19.70;84.70
54590;DHT22;40485;53.172;5.416;2022-07-29T07:02:04;19.80;85.00
54590;DHT22;40485;53.172;5.416;2022-07-29T07:04:30;19.80;85.00
54590;DHT22;40485;53.172;5.416;2022-07-29T07:06:55;19.80;83.90
54590;DHT22;40485;53.172;5.416;2022-07-29T07:09:21;19.80;83.10
54590;DHT22;40485;53.172;5.416;2022-07-29T07:11:47;19.90;83.20
54590;DHT22;40485;53.172;5.416;2022-07-29T07:14:12;19.80;83.60
54590;DHT22;40485;53.172;5.416;2022-07-29T07:16:38;19.80;84.00
54590;DHT22;40485;53.172;5.416;2022-07-29T07:19:03;19.90;83.50
54590;DHT22;40485;53.172;5.416;2022-07-29T07:21:29;19.90;83.30
54590;DHT22;40485;53.172;5.416;2022-07-29T07:23:55;20.00;82.70
54590;DHT22;40485;53.172;5.416;2022-07-29T07:26:21;20.00;82.30
54590;DHT22;40485;53.172;5.416;2022-07-29T07:28:46;20.10;82.70
54590;DHT22;40485;53.172;5.416;2022-07-29T07:31:12;20.10;82.70
54590;DHT22;40485;53.172;5.416;2022-07-29T07:33:37;20.10;82.80
54590;DHT22;40485;53.172;5.416;2022-07-29T07:36:03;20.10;83.30
54590;DHT22;40485;53.172;5.416;2022-07-29T07:38:29;20.10;82.70
54590;DHT22;40485;53.172;5.416;2022-07-29T07:40:54;20.20;83.20
54590;DHT22;40485;53.172;5.416;2022-07-29T07:43:20;20.20;82.90
54590;DHT22;40485;53.172;5.416;2022-07-29T07:45:47;20.30;82.80
54590;DHT22;40485;53.172;5.416;2022-07-29T07:48:12;20.20;82.60
54590;DHT22;40485;53.172;5.416;2022-07-29T07:50:38;20.30;82.20
54590;DHT22;40485;53.172;5.416;2022-07-29T07:53:03;20.30;81.90
54590;DHT22;40485;53.172;5.416;2022-07-29T07:55:29;20.30;81.90
54590;DHT22;40485;53.172;5.416;2022-07-29T07:57:55;20.30;81.60
54590;DHT22;40485;53.172;5.416;2022-07-29T08:00:21;20.40;81.60
54590;DHT22;40485;53.172;5.416;2022-07-29T08:02:47;20.50;81.60
54590;DHT22;40485;53.172;5.416;2022-07-29T08:05:13;20.50;81.50
54590;DHT22;40485;53.172;5.416;2022-07-29T08:07:43;20.50;81.70
54590;DHT22;40485;53.172;5.416;2022-07-29T08:10:09;20.60;81.90
54590;DHT22;40485;53.172;5.416;2022-07-29T08:12:35;20.50;81.50
54590;DHT22;40485;53.172;5.416;2022-07-29T08:15:01;20.50;81.70
54590;DHT22;40485;53.172;5.416;2022-07-29T08:17:26;20.50;81.80
54590;DHT22;40485;53.172;5.416;2022-07-29T08:19:52;20.60;81.70
54590;DHT22;40485;53.172;5.416;2022-07-29T08:22:17;20.70;81.80
54590;DHT22;40485;53.172;5.416;2022-07-29T08:24:43;20.70;80.60
54590;DHT22;40485;53.172;5.416;2022-07-29T08:27:12;20.70;80.60
54590;DHT22;40485;53.172;5.416;2022-07-29T08:29:38;20.80;80.80
54590;DHT22;40485;53.172;5.416;2022-07-29T08:32:04;20.70;81.00
54590;DHT22;40485;53.172;5.416;2022-07-29T08:34:30;20.80;81.00
54590;DHT22;40485;53.172;5.416;2022-07-29T08:36:56;20.80;80.80
54590;DHT22;40485;53.172;5.416;2022-07-29T08:39:23;20.80;80.60
54590;DHT22;40485;53.172;5.416;2022-07-29T08:41:49;20.80;80.40
54590;DHT22;40485;53.172;5.416;2022-07-29T08:44:19;20.70;80.70
54590;DHT22;40485;53.172;5.416;2022-07-29T08:46:47;20.70;80.70
54590;DHT22;40485;53.172;5.416;2022-07-29T08:49:12;20.80;81.00
54590;DHT22;40485;53.172;5.416;2022-07-29T08:51:41;20.80;80.60
54590;DHT22;40485;53.172;5.416;2022-07-29T08:54:09;20.90;80.20
54590;DHT22;40485;53.172;5.416;2022-07-29T08:56:35;20.90;80.70
54590;DHT22;40485;53.172;5.416;2022-07-29T08:59:03;20.90;80.20
54590;DHT22;40485;53.172;5.416;2022-07-29T09:01:32;20.90;80.30
54590;DHT22;40485;53.172;5.416;2022-07-29T09:03:59;20.80;80.60
54590;DHT22;40485;53.172;5.416;2022-07-29T09:06:30;20.80;80.90
54590;DHT22;40485;53.172;5.416;2022-07-29T09:08:59;20.80;80.30
54590;DHT22;40485;53.172;5.416;2022-07-29T09:11:25;20.90;80.70
54590;DHT22;40485;53.172;5.416;2022-07-29T09:13:51;20.90;80.40
54590;DHT22;40485;53.172;5.416;2022-07-29T09:16:16;20.90;80.30
54590;DHT22;40485;53.172;5.416;2022-07-29T09:18:44;21.00;80.30
54590;DHT22;40485;53.172;5.416;2022-07-29T09:21:12;21.00;80.20
54590;DHT22;40485;53.172;5.416;2022-07-29T09:26:35;21.10;80.40
54590;DHT22;40485;53.172;5.416;2022-07-29T09:29:11;21.00;80.40
54590;DHT22;40485;53.172;5.416;2022-07-29T09:31:40;21.00;80.70
54590;DHT22;40485;53.172;5.416;2022-07-29T09:34:08;21.00;80.60
54590;DHT22;40485;53.172;5.416;2022-07-29T09:36:45;20.90;80.70
54590;DHT22;40485;53.172;5.416;2022-07-29T09:39:12;21.00;80.70
54590;DHT22;40485;53.172;5.416;2022-07-29T09:41:45;20.90;81.00
54590;DHT22;40485;53.172;5.416;2022-07-29T09:44:11;21.00;81.00
54590;DHT22;40485;53.172;5.416;2022-07-29T09:46:37;20.90;81.30
54590;DHT22;40485;53.172;5.416;2022-07-29T09:49:11;20.90;81.40
54590;DHT22;40485;53.172;5.416;2022-07-29T09:51:38;20.90;81.30
54590;DHT22;40485;53.172;5.416;2022-07-29T09:54:25;20.90;81.40
54590;DHT22;40485;53.172;5.416;2022-07-29T09:56:52;20.90;81.60
54590;DHT22;40485;53.172;5.416;2022-07-29T09:59:18;20.80;82.00
54590;DHT22;40485;53.172;5.416;2022-07-29T10:01:46;20.80;82.90
54590;DHT22;40485;53.172;5.416;2022-07-29T10:04:11;20.90;83.10
54590;DHT22;40485;53.172;5.416;2022-07-29T10:06:58;20.90;84.00
54590;DHT22;40485;53.172;5.416;2022-07-29T10:09:25;21.00;85.20
54590;DHT22;40485;53.172;5.416;2022-07-29T10:12:04;21.00;85.20
54590;DHT22;40485;53.172;5.416;2022-07-29T10:14:31;20.90;85.50
54590;DHT22;40485;53.172;5.416;2022-07-29T10:16:59;20.90;85.40
54590;DHT22;40485;53.172;5.416;2022-07-29T10:19:25;20.90;85.40
54590;DHT22;40485;53.172;5.416;2022-07-29T10:21:51;20.80;85.50
54590;DHT22;40485;53.172;5.416;2022-07-29T10:24:17;20.90;85.50
54590;DHT22;40485;53.172;5.416;2022-07-29T10:26:43;20.90;85.40
54590;DHT22;40485;53.172;5.416;2022-07-29T10:29:11;20.90;85.30
54590;DHT22;40485;53.172;5.416;2022-07-29T10:31:48;20.90;85.80
54590;DHT22;40485;53.172;5.416;2022-07-29T10:37:04;20.70;86.80
54590;DHT22;40485;53.172;5.416;2022-07-29T10:42:21;20.70;86.60
54590;DHT22;40485;53.172;5.416;2022-07-29T10:44:49;20.70;87.10
54590;DHT22;40485;53.172;5.416;2022-07-29T10:47:33;20.80;87.40
54590;DHT22;40485;53.172;5.416;2022-07-29T10:50:01;20.80;87.60
54590;DHT22;40485;53.172;5.416;2022-07-29T10:52:54;20.70;88.00
54590;DHT22;40485;53.172;5.416;2022-07-29T10:55:35;20.70;88.30
54590;DHT22;40485;53.172;5.416;2022-07-29T10:58:18;20.70;88.50
54590;DHT22;40485;53.172;5.416;2022-07-29T11:00:48;20.70;88.90
54590;DHT22;40485;53.172;5.416;2022-07-29T11:03:46;20.70;89.10
54590;DHT22;40485;53.172;5.416;2022-07-29T11:06:13;20.70;88.90
54590;DHT22;40485;53.172;5.416;2022-07-29T11:08:39;20.70;89.30
54590;DHT22;40485;53.172;5.416;2022-07-29T11:13:50;20.50;89.80
54590;DHT22;40485;53.172;5.416;2022-07-29T11:16:18;20.50;90.20
54590;DHT22;40485;53.172;5.416;2022-07-29T11:21:45;20.50;90.30
54590;DHT22;40485;53.172;5.416;2022-07-29T11:24:21;20.60;90.30
54590;DHT22;40485;53.172;5.416;2022-07-29T11:27:11;20.70;90.50
54590;DHT22;40485;53.172;5.416;2022-07-29T11:32:18;20.80;89.80
54590;DHT22;40485;53.172;5.416;2022-07-29T11:34:47;20.80;89.70
54590;DHT22;40485;53.172;5.416;2022-07-29T11:37:15;20.90;89.40
54590;DHT22;40485;53.172;5.416;2022-07-29T11:45:05;21.00;89.10
54590;DHT22;40485;53.172;5.416;2022-07-29T11:47:36;21.00;88.90
54590;DHT22;40485;53.172;5.416;2022-07-29T11:50:04;21.00;89.10
54590;DHT22;40485;53.172;5.416;2022-07-29T11:52:41;20.90;89.70
54590;DHT22;40485;53.172;5.416;2022-07-29T11:55:16;20.90;89.30
54590;DHT22;40485;53.172;5.416;2022-07-29T11:57:51;20.90;89.50
54590;DHT22;40485;53.172;5.416;2022-07-29T12:00:25;20.90;89.70
54590;DHT22;40485;53.172;5.416;2022-07-29T12:02:51;20.90;89.90
54590;DHT22;40485;53.172;5.416;2022-07-29T12:05:17;20.80;90.00
54590;DHT22;40485;53.172;5.416;2022-07-29T12:07:43;20.90;90.00
54590;DHT22;40485;53.172;5.416;2022-07-29T12:10:09;20.90;89.80
54590;DHT22;40485;53.172;5.416;2022-07-29T12:12:36;21.00;90.00
54590;DHT22;40485;53.172;5.416;2022-07-29T12:15:15;21.00;89.60
54590;DHT22;40485;53.172;5.416;2022-07-29T12:17:43;21.10;89.90
54590;DHT22;40485;53.172;5.416;2022-07-29T12:20:09;21.10;89.90
54590;DHT22;40485;53.172;5.416;2022-07-29T12:22:37;21.20;89.80
54590;DHT22;40485;53.172;5.416;2022-07-29T12:27:30;21.30;89.80
54590;DHT22;40485;53.172;5.416;2022-07-29T12:30:01;21.40;89.50
54590;DHT22;40485;53.172;5.416;2022-07-29T12:32:32;21.70;89.70
54590;DHT22;40485;53.172;5.416;2022-07-29T12:34:59;21.90;89.20
54590;DHT22;40485;53.172;5.416;2022-07-29T12:37:27;22.30;89.00
54590;DHT22;40485;53.172;5.416;2022-07-29T12:39:52;22.60;88.20
54590;DHT22;40485;53.172;5.416;2022-07-29T12:42:18;22.90;87.10
54590;DHT22;40485;53.172;5.416;2022-07-29T12:44:48;23.10;86.30
54590;DHT22;40485;53.172;5.416;2022-07-29T12:47:14;23.30;85.40
54590;DHT22;40485;53.172;5.416;2022-07-29T12:49:40;23.40;85.20
54590;DHT22;40485;53.172;5.416;2022-07-29T12:52:26;23.60;84.70
54590;DHT22;40485;53.172;5.416;2022-07-29T12:54:52;23.80;84.00
54590;DHT22;40485;53.172;5.416;2022-07-29T12:57:17;23.90;83.60
54590;DHT22;40485;53.172;5.416;2022-07-29T12:59:43;24.10;83.50
54590;DHT22;40485;53.172;5.416;2022-07-29T13:02:20;24.30;83.60
54590;DHT22;40485;53.172;5.416;2022-07-29T13:04:56;24.50;83.10
54590;DHT22;40485;53.172;5.416;2022-07-29T13:07:27;24.70;82.00
54590;DHT22;40485;53.172;5.416;2022-07-29T13:10:09;24.70;80.00
54590;DHT22;40485;53.172;5.416;2022-07-29T13:12:35;24.80;80.10
54590;DHT22;40485;53.172;5.416;2022-07-29T13:15:12;24.90;78.90
54590;DHT22;40485;53.172;5.416;2022-07-29T13:17:44;25.00;77.20
54590;DHT22;40485;53.172;5.416;2022-07-29T13:20:11;25.10;78.20
54590;DHT22;40485;53.172;5.416;2022-07-29T13:22:41;25.20;78.40
54590;DHT22;40485;53.172;5.416;2022-07-29T13:25:08;25.30;79.00
54590;DHT22;40485;53.172;5.416;2022-07-29T13:27:37;25.40;77.40
54590;DHT22;40485;53.172;5.416;2022-07-29T13:30:05;25.50;77.60
54590;DHT22;40485;53.172;5.416;2022-07-29T13:32:32;25.50;77.50
54590;DHT22;40485;53.172;5.416;2022-07-29T13:35:02;25.60;77.30
54590;DHT22;40485;53.172;5.416;2022-07-29T13:37:28;25.60;76.60
54590;DHT22;40485;53.172;5.416;2022-07-29T13:39:55;25.60;76.30
54590;DHT22;40485;53.172;5.416;2022-07-29T13:42:22;25.70;76.70
54590;DHT22;40485;53.172;5.416;2022-07-29T13:44:48;25.70;76.50
54590;DHT22;40485;53.172;5.416;2022-07-29T13:47:20;25.70;76.00
54590;DHT22;40485;53.172;5.416;2022-07-29T13:49:47;25.70;76.00
54590;DHT22;40485;53.172;5.416;2022-07-29T13:52:13;25.70;76.50
54590;DHT22;40485;53.172;5.416;2022-07-29T13:54:38;25.80;76.40
54590;DHT22;40485;53.172;5.416;2022-07-29T13:57:04;25.80;76.30
54590;DHT22;40485;53.172;5.416;2022-07-29T13:59:30;25.90;76.40
54590;DHT22;40485;53.172;5.416;2022-07-29T14:01:56;25.80;76.00
54590;DHT22;40485;53.172;5.416;2022-07-29T14:04:21;25.80;76.40
54590;DHT22;40485;53.172;5.416;2022-07-29T14:06:49;25.90;76.60
54590;DHT22;40485;53.172;5.416;2022-07-29T14:09:15;25.90;75.50
54590;DHT22;40485;53.172;5.416;2022-07-29T14:11:40;25.90;76.30
54590;DHT22;40485;53.172;5.416;2022-07-29T14:14:06;25.90;78.10
54590;DHT22;40485;53.172;5.416;2022-07-29T14:16:32;25.90;78.00
54590;DHT22;40485;53.172;5.416;2022-07-29T14:18:58;26.00;78.10
54590;DHT22;40485;53.172;5.416;2022-07-29T14:21:24;26.00;77.50
54590;DHT22;40485;53.172;5.416;2022-07-29T14:23:49;26.00;77.20
54590;DHT22;40485;53.172;5.416;2022-07-29T14:26:15;26.00;77.90
54590;DHT22;40485;53.172;5.416;2022-07-29T14:28:41;25.80;77.80
54590;DHT22;40485;53.172;5.416;2022-07-29T14:31:07;25.90;78.20
54590;DHT22;40485;53.172;5.416;2022-07-29T14:33:33;25.90;77.80
54590;DHT22;40485;53.172;5.416;2022-07-29T14:35:59;25.80;77.80
54590;DHT22;40485;53.172;5.416;2022-07-29T14:38:25;25.80;77.80
54590;DHT22;40485;53.172;5.416;2022-07-29T14:40:50;25.70;78.20
54590;DHT22;40485;53.172;5.416;2022-07-29T14:43:16;25.70;78.30
54590;DHT22;40485;53.172;5.416;2022-07-29T14:45:42;25.80;78.70
54590;DHT22;40485;53.172;5.416;2022-07-29T14:48:07;25.80;78.60
54590;DHT22;40485;53.172;5.416;2022-07-29T14:50:33;25.90;78.40
54590;DHT22;40485;53.172;5.416;2022-07-29T14:53:00;25.90;78.30
54590;DHT22;40485;53.172;5.416;2022-07-29T14:55:26;25.90;78.20
54590;DHT22;40485;53.172;5.416;2022-07-29T14:57:52;25.90;78.40
54590;DHT22;40485;53.172;5.416;2022-07-29T15:00:19;25.80;78.50
54590;DHT22;40485;53.172;5.416;2022-07-29T15:02:46;25.90;78.50
54590;DHT22;40485;53.172;5.416;2022-07-29T15:05:12;25.90;78.50
54590;DHT22;40485;53.172;5.416;2022-07-29T15:07:37;25.90;78.40
54590;DHT22;40485;53.172;5.416;2022-07-29T15:10:03;25.90;78.80
54590;DHT22;40485;53.172;5.416;2022-07-29T15:12:30;25.90;78.80
54590;DHT22;40485;53.172;5.416;2022-07-29T15:14:56;25.90;78.50
54590;DHT22;40485;53.172;5.416;2022-07-29T15:17:21;25.80;78.50
54590;DHT22;40485;53.172;5.416;2022-07-29T15:19:47;25.70;78.70
54590;DHT22;40485;53.172;5.416;2022-07-29T15:22:13;25.70;78.70
54590;DHT22;40485;53.172;5.416;2022-07-29T15:24:38;25.70;79.00
54590;DHT22;40485;53.172;5.416;2022-07-29T15:27:04;25.70;79.00
54590;DHT22;40485;53.172;5.416;2022-07-29T15:29:30;25.60;79.50
54590;DHT22;40485;53.172;5.416;2022-07-29T15:31:55;25.60;79.60
54590;DHT22;40485;53.172;5.416;2022-07-29T15:34:21;25.60;79.80
54590;DHT22;40485;53.172;5.416;2022-07-29T15:36:50;25.60;79.80
54590;DHT22;40485;53.172;5.416;2022-07-29T15:39:16;25.60;80.60
54590;DHT22;40485;53.172;5.416;2022-07-29T15:41:41;25.60;80.50
54590;DHT22;40485;53.172;5.416;2022-07-29T15:44:10;25.60;80.60
54590;DHT22;40485;53.172;5.416;2022-07-29T15:46:36;25.50;80.30
54590;DHT22;40485;53.172;5.416;2022-07-29T15:49:20;25.50;80.90
54590;DHT22;40485;53.172;5.416;2022-07-29T15:51:45;25.50;81.20
54590;DHT22;40485;53.172;5.416;2022-07-29T15:54:11;25.60;81.10
54590;DHT22;40485;53.172;5.416;2022-07-29T15:56:37;25.50;81.40
54590;DHT22;40485;53.172;5.416;2022-07-29T15:59:03;25.40;81.30
54590;DHT22;40485;53.172;5.416;2022-07-29T16:01:29;25.40;81.60
54590;DHT22;40485;53.172;5.416;2022-07-29T16:03:54;25.30;82.60
54590;DHT22;40485;53.172;5.416;2022-07-29T16:06:20;25.30;82.00
54590;DHT22;40485;53.172;5.416;2022-07-29T16:08:46;25.30;81.70
54590;DHT22;40485;53.172;5.416;2022-07-29T16:11:14;25.20;81.80
54590;DHT22;40485;53.172;5.416;2022-07-29T16:13:40;25.20;82.00